createdAt,value
2023-01-13T00:02:18.299Z,43.30
2023-01-13T00:04:49.907Z,42.80
2023-01-13T00:07:19.472Z,42.30
2023-01-13T00:09:52.126Z,43.50
2023-01-13T00:12:20.735Z,43.20
2023-01-13T00:14:52.464Z,41.50
2023-01-13T00:17:21.354Z,38.60
2023-01-13T00:19:53.130Z,41.90
2023-01-13T00:22:23.481Z,42.90
2023-01-13T00:24:54.699Z,41.60
2023-01-13T00:27:26.896Z,39.40
2023-01-13T00:30:01.281Z,37.90
2023-01-13T00:32:30.072Z,39.40
2023-01-13T00:35:01.436Z,40.60
2023-01-13T00:37:30.053Z,36.40
2023-01-13T00:40:03.377Z,39.80
2023-01-13T00:43:13.126Z,37.60
2023-01-13T00:45:44.304Z,38.10
2023-01-13T00:48:15.516Z,38.70
2023-01-13T00:51:04.433Z,40.90
2023-01-13T00:53:41.686Z,39.20
2023-01-13T00:56:24.355Z,37.90
2023-01-13T00:58:59.137Z,34.80
2023-01-13T01:01:28.663Z,35.80
2023-01-13T01:03:57.502Z,36.60
2023-01-13T01:06:27.613Z,35.40
2023-01-13T01:08:57.637Z,37.70
2023-01-13T01:11:29.437Z,38.90
2023-01-13T01:14:03.750Z,35.30
2023-01-13T01:16:35.978Z,41.80
2023-01-13T01:19:05.300Z,35.80
2023-01-13T01:21:34.960Z,36.30
2023-01-13T01:24:04.665Z,38.60
2023-01-13T01:26:35.015Z,37.30
2023-01-13T01:29:05.915Z,37.80
2023-01-13T01:31:35.562Z,39.10
2023-01-13T01:34:04.368Z,36.30
2023-01-13T01:36:36.060Z,37.60
2023-01-13T01:39:05.729Z,37.70
2023-01-13T01:41:37.250Z,34.90
2023-01-13T01:44:29.052Z,34.80
2023-01-13T01:50:32.080Z,31.70
2023-01-13T01:53:12.571Z,33.60
2023-01-13T01:55:42.455Z,36.00
2023-01-13T01:58:18.625Z,36.70
2023-01-13T02:00:49.851Z,34.40
2023-01-13T02:03:20.483Z,31.30
2023-01-13T02:05:50.270Z,29.70
2023-01-13T02:08:20.410Z,33.10
2023-01-13T02:10:53.988Z,31.70
2023-01-13T02:13:23.613Z,33.70
2023-01-13T02:16:20.458Z,33.30
2023-01-13T02:19:25.798Z,31.40
2023-01-13T02:22:26.970Z,33.30
2023-01-13T02:25:37.037Z,34.80
2023-01-13T02:29:09.512Z,36.20
2023-01-13T02:31:50.498Z,33.40
2023-01-13T02:34:48.182Z,32.30
2023-01-13T02:37:32.114Z,33.00
2023-01-13T02:40:08.929Z,33.50
2023-01-13T02:43:10.199Z,30.10
2023-01-13T02:45:49.975Z,32.00
2023-01-13T02:48:23.146Z,31.40
2023-01-13T02:51:04.889Z,32.80
2023-01-13T02:53:53.462Z,29.90
2023-01-13T02:56:25.320Z,32.20
2023-01-13T02:59:00.044Z,32.40
2023-01-13T03:01:29.241Z,34.20
2023-01-13T03:04:02.542Z,32.40
2023-01-13T03:07:04.609Z,33.20
2023-01-13T03:09:59.027Z,29.40
2023-01-13T03:12:30.419Z,33.60
2023-01-13T03:15:40.563Z,33.60
2023-01-13T03:18:27.598Z,35.30
2023-01-13T03:24:24.865Z,30.70
2023-01-13T03:27:05.050Z,30.60
2023-01-13T03:29:41.616Z,33.60
2023-01-13T03:32:40.503Z,33.30
2023-01-13T03:35:24.396Z,33.50
2023-01-13T03:38:06.638Z,33.30
2023-01-13T03:40:44.494Z,35.30
2023-01-13T03:43:39.285Z,38.80
2023-01-13T03:46:17.009Z,35.10
2023-01-13T03:48:51.344Z,35.70
2023-01-13T03:51:24.915Z,36.60
2023-01-13T03:54:01.127Z,36.70
2023-01-13T03:56:38.913Z,36.50
2023-01-13T03:59:14.674Z,40.10
2023-01-13T04:02:01.873Z,36.90
2023-01-13T04:04:45.451Z,36.10
2023-01-13T04:07:51.915Z,39.20
2023-01-13T04:10:29.172Z,34.10
2023-01-13T04:13:08.249Z,30.20
2023-01-13T04:15:40.470Z,29.80
2023-01-13T04:20:47.637Z,30.00
2023-01-13T04:23:20.401Z,30.60
2023-01-13T04:25:52.732Z,29.80
2023-01-13T04:28:24.067Z,29.80
2023-01-13T04:30:55.183Z,28.50
2023-01-13T04:33:23.922Z,28.50
2023-01-13T04:35:53.021Z,29.90
2023-01-13T04:38:24.234Z,33.30
2023-01-13T04:40:52.887Z,29.50
2023-01-13T04:43:24.438Z,30.80
2023-01-13T04:45:53.681Z,31.50
2023-01-13T04:48:24.843Z,33.20
2023-01-13T04:50:56.569Z,29.50
2023-01-13T04:53:26.192Z,34.80
2023-01-13T04:55:56.297Z,34.20
2023-01-13T04:58:25.103Z,35.70
2023-01-13T05:00:57.270Z,35.20
2023-01-13T05:03:26.978Z,29.70
2023-01-13T05:05:55.925Z,32.90
2023-01-13T05:08:24.581Z,34.80
2023-01-13T05:10:54.461Z,35.40
2023-01-13T05:13:41.943Z,33.70
2023-01-13T05:16:31.246Z,34.90
2023-01-13T05:19:03.146Z,32.50
2023-01-13T05:21:50.192Z,33.50
2023-01-13T05:24:38.943Z,34.60
2023-01-13T05:27:08.588Z,37.40
2023-01-13T05:29:37.359Z,33.50
2023-01-13T05:32:08.511Z,33.30
2023-01-13T05:34:42.457Z,32.70
2023-01-13T05:37:13.215Z,32.80
2023-01-13T05:40:00.868Z,36.30
2023-01-13T05:42:48.081Z,38.00
2023-01-13T05:45:18.871Z,34.90
2023-01-13T05:47:47.975Z,34.70
2023-01-13T05:50:20.674Z,36.00
2023-01-13T05:52:51.926Z,39.00
2023-01-13T05:55:23.499Z,32.80
2023-01-13T05:57:52.929Z,36.70
2023-01-13T06:00:24.956Z,37.20
2023-01-13T06:02:56.810Z,35.60
2023-01-13T06:05:27.206Z,35.70
2023-01-13T06:08:03.370Z,31.00
2023-01-13T06:10:32.469Z,34.20
2023-01-13T06:13:01.693Z,35.50
2023-01-13T06:15:30.401Z,34.90
2023-01-13T06:18:02.735Z,35.40
2023-01-13T06:20:32.584Z,38.00
2023-01-13T06:23:03.229Z,33.90
2023-01-13T06:25:41.375Z,32.70
2023-01-13T06:28:13.031Z,37.50
2023-01-13T06:30:49.250Z,33.70
2023-01-13T06:33:24.404Z,34.70
2023-01-13T06:35:58.722Z,32.70
2023-01-13T06:38:35.285Z,35.00
2023-01-13T06:41:06.511Z,34.50
2023-01-13T06:43:35.827Z,36.40
2023-01-13T06:46:05.765Z,36.90
2023-01-13T06:48:37.630Z,37.80
2023-01-13T06:51:10.619Z,36.70
2023-01-13T06:56:09.925Z,39.10
2023-01-13T06:58:38.828Z,33.10
2023-01-13T07:01:10.277Z,32.80
2023-01-13T07:03:42.031Z,36.60
2023-01-13T07:06:13.192Z,33.80
2023-01-13T07:08:42.428Z,38.50
2023-01-13T07:11:14.598Z,40.20
2023-01-13T07:14:02.114Z,37.50
2023-01-13T07:16:30.702Z,39.70
2023-01-13T07:19:01.602Z,39.60
2023-01-13T07:21:30.355Z,47.00
2023-01-13T07:23:59.147Z,44.00
2023-01-13T07:26:27.889Z,44.00
2023-01-13T07:28:59.140Z,41.80
2023-01-13T07:31:34.546Z,43.20
2023-01-13T07:34:07.933Z,43.00
2023-01-13T07:36:36.795Z,39.50
2023-01-13T07:39:05.873Z,42.00
2023-01-13T07:41:52.940Z,36.10
2023-01-13T07:44:22.152Z,39.80
2023-01-13T07:46:51.202Z,42.30
2023-01-13T07:49:22.534Z,41.10
2023-01-13T07:51:51.125Z,37.40
2023-01-13T07:54:25.547Z,41.40
2023-01-13T07:57:00.563Z,48.70
2023-01-13T07:59:29.863Z,40.10
2023-01-13T08:01:58.689Z,40.70
2023-01-13T08:04:30.058Z,35.10
2023-01-13T08:06:58.801Z,38.80
2023-01-13T08:09:30.245Z,36.70
2023-01-13T08:12:18.049Z,36.30
2023-01-13T08:14:46.711Z,40.60
2023-01-13T08:17:15.720Z,38.70
2023-01-13T08:19:44.272Z,38.90
2023-01-13T08:22:13.231Z,36.60
2023-01-13T08:24:41.791Z,40.60
2023-01-13T08:27:10.999Z,37.70
2023-01-13T08:29:39.509Z,44.70
2023-01-13T08:32:08.077Z,46.20
2023-01-13T08:34:36.577Z,42.30
2023-01-13T08:37:05.465Z,45.70
2023-01-13T08:39:33.884Z,45.30
2023-01-13T08:42:04.078Z,38.40
2023-01-13T08:44:33.556Z,36.10
2023-01-13T08:47:02.729Z,31.90
2023-01-13T08:49:33.267Z,41.50
2023-01-13T08:52:02.990Z,51.10
2023-01-13T08:54:32.275Z,47.70
2023-01-13T08:57:04.070Z,50.30
2023-01-13T08:59:34.240Z,49.30
2023-01-13T09:02:17.791Z,43.20
2023-01-13T09:04:51.230Z,67.00
2023-01-13T09:07:21.096Z,56.80
2023-01-13T09:09:49.653Z,40.70
2023-01-13T09:12:37.353Z,50.90
2023-01-13T09:15:10.858Z,41.90
2023-01-13T09:17:39.775Z,42.50
2023-01-13T09:20:08.940Z,48.50
2023-01-13T09:22:40.916Z,56.50
2023-01-13T09:25:10.394Z,53.80
2023-01-13T09:27:40.144Z,48.20
2023-01-13T09:30:09.208Z,63.10
2023-01-13T09:32:38.666Z,53.90
2023-01-13T09:35:08.906Z,53.20
2023-01-13T09:37:39.993Z,37.10
2023-01-13T09:40:18.329Z,36.10
2023-01-13T09:43:13.363Z,33.50
2023-01-13T09:45:51.847Z,30.70
2023-01-13T09:48:25.106Z,27.70
2023-01-13T09:51:09.794Z,41.30
2023-01-13T09:53:45.082Z,34.80
2023-01-13T09:56:13.565Z,36.00
2023-01-13T09:58:42.434Z,37.40
2023-01-13T10:01:21.149Z,40.10
2023-01-13T10:03:51.277Z,35.40
2023-01-13T10:06:24.799Z,32.10
2023-01-13T10:08:56.304Z,33.50
2023-01-13T10:11:49.678Z,33.00
2023-01-13T10:14:27.186Z,34.10
2023-01-13T10:17:22.094Z,27.20
2023-01-13T10:19:59.785Z,29.90
2023-01-13T10:23:06.054Z,27.50
2023-01-13T10:25:44.840Z,33.20
2023-01-13T10:28:18.458Z,32.00
2023-01-13T10:30:48.284Z,36.30
2023-01-13T10:33:21.453Z,33.70
2023-01-13T10:36:04.360Z,33.80
2023-01-13T10:38:51.025Z,36.50
2023-01-13T10:41:27.275Z,31.20
2023-01-13T10:44:09.818Z,30.10
2023-01-13T10:46:53.307Z,30.90
2023-01-13T10:49:40.991Z,36.20
2023-01-13T10:52:27.572Z,28.50
2023-01-13T10:54:56.872Z,30.50
2023-01-13T10:57:27.664Z,35.80
2023-01-13T10:59:56.540Z,36.20
2023-01-13T11:02:36.251Z,33.10
2023-01-13T11:05:23.717Z,28.80
2023-01-13T11:07:55.160Z,25.10
2023-01-13T11:10:30.219Z,24.50
2023-01-13T11:13:29.858Z,25.40
2023-01-13T11:16:09.306Z,26.60
2023-01-13T11:19:12.378Z,26.00
2023-01-13T11:21:55.313Z,24.00
2023-01-13T11:27:14.202Z,17.70
2023-01-13T11:30:12.256Z,16.90
2023-01-13T11:33:24.267Z,13.40
2023-01-13T11:36:20.693Z,11.20
2023-01-13T11:39:03.377Z,12.00
2023-01-13T11:42:08.698Z,21.50
2023-01-13T11:44:49.695Z,22.30
2023-01-13T11:47:28.124Z,24.40
2023-01-13T11:49:57.500Z,23.30
2023-01-13T11:52:48.130Z,22.70
2023-01-13T11:55:40.116Z,21.00
2023-01-13T11:58:21.106Z,22.90
2023-01-13T12:01:25.445Z,22.40
2023-01-13T12:04:21.810Z,18.00
2023-01-13T12:07:07.689Z,20.00
2023-01-13T12:10:03.759Z,19.50
2023-01-13T12:12:33.977Z,19.80
2023-01-13T12:15:24.837Z,17.20
2023-01-13T12:18:21.543Z,15.00
2023-01-13T12:21:09.543Z,16.80
2023-01-13T12:23:46.933Z,16.00
2023-01-13T12:26:17.052Z,15.70
2023-01-13T12:28:45.586Z,14.80
2023-01-13T12:31:19.047Z,15.90
2023-01-13T12:33:59.740Z,13.60
2023-01-13T12:36:35.219Z,16.60
2023-01-13T12:39:20.221Z,17.00
2023-01-13T12:42:24.419Z,15.40
2023-01-13T12:45:13.112Z,16.90
2023-01-13T12:47:47.023Z,14.50
2023-01-13T12:50:28.265Z,13.80
2023-01-13T12:53:21.870Z,15.80
2023-01-13T12:55:53.992Z,14.00
2023-01-13T12:58:29.220Z,15.40
2023-01-13T13:01:07.061Z,17.70
2023-01-13T13:03:36.919Z,10.90
2023-01-13T13:06:24.067Z,11.40
2023-01-13T13:09:28.357Z,10.30
2023-01-13T13:12:03.326Z,9.30
2023-01-13T13:14:55.025Z,10.40
2023-01-13T13:17:30.130Z,9.50
2023-01-13T13:20:01.601Z,12.60
2023-01-13T13:22:43.680Z,11.20
2023-01-13T13:25:24.617Z,14.70
2023-01-13T13:28:16.643Z,17.80
2023-01-13T13:30:56.790Z,15.70
2023-01-13T13:33:50.516Z,18.70
2023-01-13T13:36:44.999Z,18.50
2023-01-13T13:39:43.204Z,20.50
2023-01-13T13:42:36.162Z,17.30
2023-01-13T13:45:45.800Z,17.80
2023-01-13T13:48:27.853Z,16.00
2023-01-13T13:51:03.101Z,19.50
2023-01-13T13:53:41.971Z,16.90
2023-01-13T13:56:21.000Z,18.60
2023-01-13T13:58:50.513Z,17.80
2023-01-13T14:01:28.814Z,19.70
2023-01-13T14:04:20.253Z,19.90
2023-01-13T14:06:56.212Z,18.30
2023-01-13T14:09:29.158Z,18.80
2023-01-13T14:12:03.184Z,16.70
2023-01-13T14:14:31.670Z,23.40
2023-01-13T14:17:00.181Z,19.50
2023-01-13T14:19:33.389Z,23.50
2023-01-13T14:22:07.191Z,20.50
2023-01-13T14:24:49.457Z,22.50
2023-01-13T14:27:21.640Z,19.10
2023-01-13T14:29:58.317Z,19.80
2023-01-13T14:32:36.657Z,22.10
2023-01-13T14:35:07.618Z,22.20
2023-01-13T14:37:42.048Z,25.00
2023-01-13T14:40:33.676Z,18.20
2023-01-13T14:43:04.408Z,21.90
2023-01-13T14:45:33.654Z,23.10
2023-01-13T14:48:10.058Z,17.90
2023-01-13T14:50:43.775Z,22.20
2023-01-13T14:53:48.363Z,19.20
2023-01-13T14:57:10.211Z,21.60
2023-01-13T15:00:14.892Z,20.30
2023-01-13T15:02:49.030Z,19.90
2023-01-13T15:05:24.003Z,26.10
2023-01-13T15:08:02.719Z,21.70
2023-01-13T15:11:02.134Z,25.00
2023-01-13T15:13:52.873Z,18.80
2023-01-13T15:16:26.996Z,20.70
2023-01-13T15:18:57.008Z,22.80
2023-01-13T15:21:26.270Z,25.60
2023-01-13T15:24:00.741Z,25.90
2023-01-13T15:26:34.111Z,22.60
2023-01-13T15:29:05.446Z,21.00
2023-01-13T15:31:42.558Z,29.30
2023-01-13T15:34:12.211Z,23.30
2023-01-13T15:36:45.067Z,20.50
2023-01-13T15:39:17.104Z,21.20
2023-01-13T15:42:10.342Z,24.80
2023-01-13T15:45:05.580Z,24.70
2023-01-13T15:47:35.160Z,22.30
2023-01-13T15:50:07.138Z,23.20
2023-01-13T15:52:36.556Z,25.80
2023-01-13T15:55:09.186Z,28.00
2023-01-13T15:57:46.340Z,21.30
2023-01-13T16:00:22.004Z,22.30
2023-01-13T16:02:51.881Z,22.70
2023-01-13T16:05:24.139Z,23.60
2023-01-13T16:07:56.821Z,22.70
2023-01-13T16:10:28.245Z,23.20
2023-01-13T16:12:59.537Z,26.40
2023-01-13T16:15:28.789Z,28.10
2023-01-13T16:18:00.070Z,23.80
2023-01-13T16:20:30.264Z,25.00
2023-01-13T16:22:59.371Z,26.90
2023-01-13T16:25:31.860Z,27.60
2023-01-13T16:28:04.614Z,31.80
2023-01-13T16:30:36.307Z,31.70
2023-01-13T16:33:08.471Z,34.50
2023-01-13T16:35:43.840Z,35.60
2023-01-13T16:38:29.634Z,39.50
2023-01-13T16:41:01.593Z,37.70
2023-01-13T16:43:32.316Z,35.00
2023-01-13T16:46:01.732Z,37.10
2023-01-13T16:48:31.023Z,38.30
2023-01-13T16:51:01.956Z,34.50
2023-01-13T16:53:31.249Z,40.40
2023-01-13T16:56:02.674Z,36.90
2023-01-13T16:58:37.667Z,39.70
2023-01-13T17:01:06.947Z,36.30
2023-01-13T17:03:49.354Z,43.40
2023-01-13T17:06:29.665Z,43.60
2023-01-13T17:09:08.577Z,39.90
2023-01-13T17:11:40.854Z,40.10
2023-01-13T17:14:19.157Z,40.50
2023-01-13T17:16:54.727Z,42.60
2023-01-13T17:19:26.389Z,44.80
2023-01-13T17:22:03.190Z,51.30
2023-01-13T17:24:37.789Z,43.90
2023-01-13T17:27:08.984Z,47.00
2023-01-13T17:29:40.064Z,49.20
2023-01-13T17:32:14.897Z,44.10
2023-01-13T17:34:50.295Z,41.80
2023-01-13T17:37:23.852Z,35.60
2023-01-13T17:39:55.929Z,38.00
2023-01-13T17:42:28.027Z,39.20
2023-01-13T17:44:57.231Z,37.20
2023-01-13T17:47:32.121Z,38.90
2023-01-13T17:50:01.501Z,41.30
2023-01-13T17:55:17.489Z,34.60
2023-01-13T17:57:48.840Z,40.90
2023-01-13T18:00:18.648Z,38.40
2023-01-13T18:02:54.674Z,39.40
2023-01-13T18:05:26.564Z,35.50
2023-01-13T18:07:55.770Z,38.30
2023-01-13T18:10:25.118Z,40.80
2023-01-13T18:12:54.244Z,43.10
2023-01-13T18:15:23.347Z,36.70
2023-01-13T18:17:52.570Z,44.50
2023-01-13T18:20:40.666Z,40.50
2023-01-13T18:23:37.079Z,41.00
2023-01-13T18:26:39.242Z,45.20
2023-01-13T18:29:08.464Z,46.50
2023-01-13T18:31:37.764Z,48.60
2023-01-13T18:34:09.115Z,49.00
2023-01-13T18:36:39.098Z,51.50
2023-01-13T18:39:11.335Z,53.50
2023-01-13T18:42:02.219Z,48.90
2023-01-13T18:44:31.475Z,50.00
2023-01-13T18:47:00.811Z,51.70
2023-01-13T18:49:30.899Z,52.40
2023-01-13T18:52:00.278Z,56.40
2023-01-13T18:54:29.679Z,44.40
2023-01-13T18:57:02.038Z,46.80
2023-01-13T18:59:33.329Z,53.00
2023-01-13T19:02:11.293Z,56.60
2023-01-13T19:04:40.687Z,59.50
2023-01-13T19:07:12.847Z,64.70
2023-01-13T19:09:42.454Z,62.50
2023-01-13T19:12:13.171Z,67.20
2023-01-13T19:14:44.252Z,68.70
2023-01-13T19:17:17.253Z,68.10
2023-01-13T19:19:52.618Z,69.00
2023-01-13T19:22:27.417Z,70.90
2023-01-13T19:24:56.767Z,73.40
2023-01-13T19:27:27.703Z,71.40
2023-01-13T19:30:01.868Z,74.20
